sensor_id;sensor_type;location;lat;lon;timestamp;P1;durP1;ratioP1;P2;durP2;ratioP2
5847;SDS011;8756;49.29324300;8.70599800;2023-02-28T00:00:31;13.90;;;7.50;;
5847;SDS011;8756;49.29324300;8.70599800;2023-02-28T00:02:58;12.73;;;6.77;;
5847;SDS011;8756;49.29324300;8.70599800;2023-02-28T00:05:24;12.23;;;6.67;;
5847;SDS011;8756;49.29324300;8.70599800;2023-02-28T00:07:51;12.80;;;6.90;;
5847;SDS011;8756;49.29324300;8.70599800;2023-02-28T00:10:21;12.50;;;6.43;;
5847;SDS011;8756;49.29324300;8.70599800;2023-02-28T00:12:51;12.80;;;6.97;;
5847;SDS011;8756;49.29324300;8.70599800;2023-02-28T00:15:22;14.93;;;7.40;;
5847;SDS011;8756;49.29324300;8.70599800;2023-02-28T00:17:48;12.50;;;7.50;;
5847;SDS011;8756;49.29324300;8.70599800;2023-02-28T00:20:14;14.90;;;6.30;;
5847;SDS011;8756;49.29324300;8.70599800;2023-02-28T00:22:44;13.10;;;7.27;;
5847;SDS011;8756;49.29324300;8.70599800;2023-02-28T00:25:14;14.33;;;6.80;;
5847;SDS011;8756;49.29324300;8.70599800;2023-02-28T00:27:44;13.83;;;7.60;;
5847;SDS011;8756;49.29324300;8.70599800;2023-02-28T00:30:11;12.30;;;6.83;;
5847;SDS011;8756;49.29324300;8.70599800;2023-02-28T00:32:40;12.43;;;7.00;;
5847;SDS011;8756;49.29324300;8.70599800;2023-02-28T00:35:06;12.40;;;6.23;;
5847;SDS011;8756;49.29324300;8.70599800;2023-02-28T00:37:33;12.20;;;6.67;;
5847;SDS011;8756;49.29324300;8.70599800;2023-02-28T00:39:59;12.17;;;6.60;;
5847;SDS011;8756;49.29324300;8.70599800;2023-02-28T00:42:25;11.47;;;6.00;;
5847;SDS011;8756;49.29324300;8.70599800;2023-02-28T00:44:51;13.10;;;7.70;;
5847;SDS011;8756;49.29324300;8.70599800;2023-02-28T00:47:17;13.40;;;7.07;;
5847;SDS011;8756;49.29324300;8.70599800;2023-02-28T00:49:43;17.40;;;7.90;;
5847;SDS011;8756;49.29324300;8.70599800;2023-02-28T00:52:08;19.13;;;8.10;;
5847;SDS011;8756;49.29324300;8.70599800;2023-02-28T00:54:34;16.53;;;8.17;;
5847;SDS011;8756;49.29324300;8.70599800;2023-02-28T00:57:00;13.90;;;8.03;;
5847;SDS011;8756;49.29324300;8.70599800;2023-02-28T00:59:26;14.57;;;7.37;;
5847;SDS011;8756;49.29324300;8.70599800;2023-02-28T01:01:52;15.20;;;7.50;;
5847;SDS011;8756;49.29324300;8.70599800;2023-02-28T01:04:17;14.47;;;8.07;;
5847;SDS011;8756;49.29324300;8.70599800;2023-02-28T01:06:43;17.30;;;8.00;;
5847;SDS011;8756;49.29324300;8.70599800;2023-02-28T01:09:09;17.53;;;8.87;;
5847;SDS011;8756;49.29324300;8.70599800;2023-02-28T01:11:35;13.37;;;7.27;;
5847;SDS011;8756;49.29324300;8.70599800;2023-02-28T01:14:01;13.60;;;7.20;;
5847;SDS011;8756;49.29324300;8.70599800;2023-02-28T01:16:28;14.50;;;7.63;;
5847;SDS011;8756;49.29324300;8.70599800;2023-02-28T01:18:54;14.90;;;7.10;;
5847;SDS011;8756;49.29324300;8.70599800;2023-02-28T01:21:21;14.70;;;7.60;;
5847;SDS011;8756;49.29324300;8.70599800;2023-02-28T01:23:47;13.53;;;7.10;;
5847;SDS011;8756;49.29324300;8.70599800;2023-02-28T01:26:14;14.90;;;7.20;;
5847;SDS011;8756;49.29324300;8.70599800;2023-02-28T01:28:43;13.43;;;7.00;;
5847;SDS011;8756;49.29324300;8.70599800;2023-02-28T01:31:10;12.80;;;6.20;;
5847;SDS011;8756;49.29324300;8.70599800;2023-02-28T01:33:36;13.90;;;7.93;;
5847;SDS011;8756;49.29324300;8.70599800;2023-02-28T01:36:13;14.63;;;6.90;;
5847;SDS011;8756;49.29324300;8.70599800;2023-02-28T01:38:45;13.70;;;7.20;;
5847;SDS011;8756;49.29324300;8.70599800;2023-02-28T01:41:15;17.00;;;7.77;;
5847;SDS011;8756;49.29324300;8.70599800;2023-02-28T01:46:13;15.00;;;7.13;;
5847;SDS011;8756;49.29324300;8.70599800;2023-02-28T01:48:41;15.73;;;7.90;;
5847;SDS011;8756;49.29324300;8.70599800;2023-02-28T01:51:37;16.47;;;7.90;;
5847;SDS011;8756;49.29324300;8.70599800;2023-02-28T01:54:11;14.10;;;8.37;;
5847;SDS011;8756;49.29324300;8.70599800;2023-02-28T01:56:44;16.00;;;7.27;;
5847;SDS011;8756;49.29324300;8.70599800;2023-02-28T01:59:22;14.00;;;8.20;;
5847;SDS011;8756;49.29324300;8.70599800;2023-02-28T02:02:04;21.20;;;8.57;;
5847;SDS011;8756;49.29324300;8.70599800;2023-02-28T02:04:36;14.87;;;8.27;;
5847;SDS011;8756;49.29324300;8.70599800;2023-02-28T02:07:10;18.17;;;9.73;;
5847;SDS011;8756;49.29324300;8.70599800;2023-02-28T02:09:37;17.33;;;8.60;;
5847;SDS011;8756;49.29324300;8.70599800;2023-02-28T02:12:07;15.77;;;9.00;;
5847;SDS011;8756;49.29324300;8.70599800;2023-02-28T02:17:56;13.50;;;7.37;;
5847;SDS011;8756;49.29324300;8.70599800;2023-02-28T02:23:20;15.43;;;8.83;;
5847;SDS011;8756;49.29324300;8.70599800;2023-02-28T02:32:14;14.70;;;7.33;;
5847;SDS011;8756;49.29324300;8.70599800;2023-02-28T02:37:55;16.33;;;8.60;;
5847;SDS011;8756;49.29324300;8.70599800;2023-02-28T02:40:50;15.53;;;7.30;;
5847;SDS011;8756;49.29324300;8.70599800;2023-02-28T02:43:31;16.00;;;7.63;;
5847;SDS011;8756;49.29324300;8.70599800;2023-02-28T02:46:06;15.03;;;8.00;;
5847;SDS011;8756;49.29324300;8.70599800;2023-02-28T02:48:46;16.07;;;8.53;;
5847;SDS011;8756;49.29324300;8.70599800;2023-02-28T02:51:14;16.40;;;10.40;;
5847;SDS011;8756;49.29324300;8.70599800;2023-02-28T02:53:46;23.20;;;9.67;;
5847;SDS011;8756;49.29324300;8.70599800;2023-02-28T02:56:21;15.70;;;8.67;;
5847;SDS011;8756;49.29324300;8.70599800;2023-02-28T02:58:52;17.63;;;8.27;;
5847;SDS011;8756;49.29324300;8.70599800;2023-02-28T03:01:23;15.80;;;9.13;;
5847;SDS011;8756;49.29324300;8.70599800;2023-02-28T03:03:57;16.93;;;8.43;;
5847;SDS011;8756;49.29324300;8.70599800;2023-02-28T03:06:26;17.80;;;9.10;;
5847;SDS011;8756;49.29324300;8.70599800;2023-02-28T03:08:52;14.67;;;8.30;;
5847;SDS011;8756;49.29324300;8.70599800;2023-02-28T03:11:18;16.33;;;8.50;;
5847;SDS011;8756;49.29324300;8.70599800;2023-02-28T03:13:52;15.40;;;8.50;;
5847;SDS011;8756;49.29324300;8.70599800;2023-02-28T03:16:36;15.30;;;9.30;;
5847;SDS011;8756;49.29324300;8.70599800;2023-02-28T03:20:01;14.93;;;8.33;;
5847;SDS011;8756;49.29324300;8.70599800;2023-02-28T03:25:21;15.93;;;9.07;;
5847;SDS011;8756;49.29324300;8.70599800;2023-02-28T03:28:12;16.40;;;9.07;;
5847;SDS011;8756;49.29324300;8.70599800;2023-02-28T03:31:02;16.07;;;8.90;;
5847;SDS011;8756;49.29324300;8.70599800;2023-02-28T03:33:58;18.53;;;8.40;;
5847;SDS011;8756;49.29324300;8.70599800;2023-02-28T03:36:39;15.73;;;8.80;;
5847;SDS011;8756;49.29324300;8.70599800;2023-02-28T03:39:18;19.50;;;9.27;;
5847;SDS011;8756;49.29324300;8.70599800;2023-02-28T03:42:00;17.80;;;9.60;;
5847;SDS011;8756;49.29324300;8.70599800;2023-02-28T03:44:38;16.20;;;9.27;;
5847;SDS011;8756;49.29324300;8.70599800;2023-02-28T03:50:01;18.27;;;9.77;;
5847;SDS011;8756;49.29324300;8.70599800;2023-02-28T03:52:34;17.30;;;10.00;;
5847;SDS011;8756;49.29324300;8.70599800;2023-02-28T03:55:06;14.80;;;7.90;;
5847;SDS011;8756;49.29324300;8.70599800;2023-02-28T03:57:40;14.60;;;7.70;;
5847;SDS011;8756;49.29324300;8.70599800;2023-02-28T04:00:34;14.73;;;7.80;;
5847;SDS011;8756;49.29324300;8.70599800;2023-02-28T04:03:08;15.03;;;9.20;;
5847;SDS011;8756;49.29324300;8.70599800;2023-02-28T04:05:35;19.30;;;9.47;;
5847;SDS011;8756;49.29324300;8.70599800;2023-02-28T04:08:16;15.10;;;7.93;;
5847;SDS011;8756;49.29324300;8.70599800;2023-02-28T04:10:42;17.07;;;9.10;;
5847;SDS011;8756;49.29324300;8.70599800;2023-02-28T04:13:10;16.00;;;8.90;;
5847;SDS011;8756;49.29324300;8.70599800;2023-02-28T04:15:36;18.70;;;10.77;;
5847;SDS011;8756;49.29324300;8.70599800;2023-02-28T04:18:01;20.20;;;9.87;;
5847;SDS011;8756;49.29324300;8.70599800;2023-02-28T04:20:27;18.40;;;8.83;;
5847;SDS011;8756;49.29324300;8.70599800;2023-02-28T04:22:53;17.00;;;9.73;;
5847;SDS011;8756;49.29324300;8.70599800;2023-02-28T04:25:18;16.00;;;9.00;;
5847;SDS011;8756;49.29324300;8.70599800;2023-02-28T04:27:44;16.13;;;9.20;;
5847;SDS011;8756;49.29324300;8.70599800;2023-02-28T04:30:10;14.67;;;8.60;;
5847;SDS011;8756;49.29324300;8.70599800;2023-02-28T04:32:37;15.43;;;9.13;;
5847;SDS011;8756;49.29324300;8.70599800;2023-02-28T04:35:02;14.90;;;7.00;;
5847;SDS011;8756;49.29324300;8.70599800;2023-02-28T04:37:29;16.13;;;9.77;;
5847;SDS011;8756;49.29324300;8.70599800;2023-02-28T04:39:54;15.60;;;9.10;;
5847;SDS011;8756;49.29324300;8.70599800;2023-02-28T04:42:20;19.90;;;9.70;;
5847;SDS011;8756;49.29324300;8.70599800;2023-02-28T04:44:45;15.30;;;9.20;;
5847;SDS011;8756;49.29324300;8.70599800;2023-02-28T04:47:12;16.47;;;8.77;;
5847;SDS011;8756;49.29324300;8.70599800;2023-02-28T04:49:38;17.50;;;10.60;;
5847;SDS011;8756;49.29324300;8.70599800;2023-02-28T04:52:04;20.50;;;9.90;;
5847;SDS011;8756;49.29324300;8.70599800;2023-02-28T04:54:29;16.70;;;9.77;;
5847;SDS011;8756;49.29324300;8.70599800;2023-02-28T04:56:55;17.97;;;9.63;;
5847;SDS011;8756;49.29324300;8.70599800;2023-02-28T04:59:21;14.40;;;8.03;;
5847;SDS011;8756;49.29324300;8.70599800;2023-02-28T05:01:47;15.37;;;8.50;;
5847;SDS011;8756;49.29324300;8.70599800;2023-02-28T05:04:14;18.90;;;9.07;;
5847;SDS011;8756;49.29324300;8.70599800;2023-02-28T05:06:40;18.00;;;10.10;;
5847;SDS011;8756;49.29324300;8.70599800;2023-02-28T05:09:06;16.97;;;8.60;;
5847;SDS011;8756;49.29324300;8.70599800;2023-02-28T05:11:32;15.90;;;7.83;;
5847;SDS011;8756;49.29324300;8.70599800;2023-02-28T05:14:00;16.47;;;8.73;;
5847;SDS011;8756;49.29324300;8.70599800;2023-02-28T05:16:27;15.83;;;8.40;;
5847;SDS011;8756;49.29324300;8.70599800;2023-02-28T05:18:53;16.50;;;9.43;;
5847;SDS011;8756;49.29324300;8.70599800;2023-02-28T05:24:01;16.03;;;9.40;;
5847;SDS011;8756;49.29324300;8.70599800;2023-02-28T05:26:29;15.30;;;8.60;;
5847;SDS011;8756;49.29324300;8.70599800;2023-02-28T05:28:56;16.60;;;8.60;;
5847;SDS011;8756;49.29324300;8.70599800;2023-02-28T05:31:22;16.80;;;9.33;;
5847;SDS011;8756;49.29324300;8.70599800;2023-02-28T05:33:48;15.40;;;8.23;;
5847;SDS011;8756;49.29324300;8.70599800;2023-02-28T05:36:13;15.20;;;8.60;;
5847;SDS011;8756;49.29324300;8.70599800;2023-02-28T05:38:39;17.20;;;10.07;;
5847;SDS011;8756;49.29324300;8.70599800;2023-02-28T05:41:06;16.33;;;9.00;;
5847;SDS011;8756;49.29324300;8.70599800;2023-02-28T05:43:35;16.53;;;8.43;;
5847;SDS011;8756;49.29324300;8.70599800;2023-02-28T05:46:03;15.73;;;9.43;;
5847;SDS011;8756;49.29324300;8.70599800;2023-02-28T05:48:31;15.73;;;9.23;;
5847;SDS011;8756;49.29324300;8.70599800;2023-02-28T05:50:58;15.97;;;9.60;;
5847;SDS011;8756;49.29324300;8.70599800;2023-02-28T05:53:24;18.57;;;8.93;;
5847;SDS011;8756;49.29324300;8.70599800;2023-02-28T05:55:49;16.07;;;9.40;;
5847;SDS011;8756;49.29324300;8.70599800;2023-02-28T05:58:15;15.57;;;8.20;;
5847;SDS011;8756;49.29324300;8.70599800;2023-02-28T06:00:40;16.23;;;8.70;;
5847;SDS011;8756;49.29324300;8.70599800;2023-02-28T06:03:06;16.10;;;8.83;;
5847;SDS011;8756;49.29324300;8.70599800;2023-02-28T06:05:32;17.27;;;8.63;;
5847;SDS011;8756;49.29324300;8.70599800;2023-02-28T06:07:58;16.43;;;9.30;;
5847;SDS011;8756;49.29324300;8.70599800;2023-02-28T06:10:23;15.83;;;7.87;;
5847;SDS011;8756;49.29324300;8.70599800;2023-02-28T06:12:49;18.40;;;8.13;;
5847;SDS011;8756;49.29324300;8.70599800;2023-02-28T06:15:15;15.30;;;9.60;;
5847;SDS011;8756;49.29324300;8.70599800;2023-02-28T06:17:41;18.67;;;9.77;;
5847;SDS011;8756;49.29324300;8.70599800;2023-02-28T06:20:09;18.57;;;8.87;;
5847;SDS011;8756;49.29324300;8.70599800;2023-02-28T06:22:38;16.07;;;10.13;;
5847;SDS011;8756;49.29324300;8.70599800;2023-02-28T06:25:04;16.17;;;9.63;;
5847;SDS011;8756;49.29324300;8.70599800;2023-02-28T06:27:32;19.93;;;9.70;;
5847;SDS011;8756;49.29324300;8.70599800;2023-02-28T06:29:58;16.87;;;9.07;;
5847;SDS011;8756;49.29324300;8.70599800;2023-02-28T06:32:24;15.07;;;9.13;;
5847;SDS011;8756;49.29324300;8.70599800;2023-02-28T06:34:50;17.40;;;10.33;;
5847;SDS011;8756;49.29324300;8.70599800;2023-02-28T06:37:17;18.70;;;9.97;;
5847;SDS011;8756;49.29324300;8.70599800;2023-02-28T06:39:43;17.80;;;9.57;;
5847;SDS011;8756;49.29324300;8.70599800;2023-02-28T06:42:09;15.70;;;10.00;;
5847;SDS011;8756;49.29324300;8.70599800;2023-02-28T06:44:34;16.33;;;9.30;;
5847;SDS011;8756;49.29324300;8.70599800;2023-02-28T06:47:01;16.97;;;10.80;;
5847;SDS011;8756;49.29324300;8.70599800;2023-02-28T06:49:29;18.43;;;9.90;;
5847;SDS011;8756;49.29324300;8.70599800;2023-02-28T06:51:55;19.37;;;10.50;;
5847;SDS011;8756;49.29324300;8.70599800;2023-02-28T06:54:21;16.30;;;9.47;;
5847;SDS011;8756;49.29324300;8.70599800;2023-02-28T06:56:47;18.70;;;10.07;;
5847;SDS011;8756;49.29324300;8.70599800;2023-02-28T06:59:13;15.97;;;9.20;;
5847;SDS011;8756;49.29324300;8.70599800;2023-02-28T07:01:39;16.40;;;10.60;;
5847;SDS011;8756;49.29324300;8.70599800;2023-02-28T07:04:05;17.03;;;10.07;;
5847;SDS011;8756;49.29324300;8.70599800;2023-02-28T07:06:31;18.03;;;10.37;;
5847;SDS011;8756;49.29324300;8.70599800;2023-02-28T07:08:57;18.47;;;10.10;;
5847;SDS011;8756;49.29324300;8.70599800;2023-02-28T07:11:24;18.27;;;10.00;;
5847;SDS011;8756;49.29324300;8.70599800;2023-02-28T07:13:52;17.53;;;9.13;;
5847;SDS011;8756;49.29324300;8.70599800;2023-02-28T07:16:24;16.73;;;10.10;;
5847;SDS011;8756;49.29324300;8.70599800;2023-02-28T07:18:53;18.07;;;10.20;;
5847;SDS011;8756;49.29324300;8.70599800;2023-02-28T07:21:20;16.83;;;10.23;;
5847;SDS011;8756;49.29324300;8.70599800;2023-02-28T07:23:49;18.83;;;10.13;;
5847;SDS011;8756;49.29324300;8.70599800;2023-02-28T07:26:15;17.77;;;9.97;;
5847;SDS011;8756;49.29324300;8.70599800;2023-02-28T07:28:44;16.63;;;10.43;;
5847;SDS011;8756;49.29324300;8.70599800;2023-02-28T07:31:12;20.07;;;10.40;;
5847;SDS011;8756;49.29324300;8.70599800;2023-02-28T07:33:40;17.47;;;10.33;;
5847;SDS011;8756;49.29324300;8.70599800;2023-02-28T07:36:08;17.63;;;10.03;;
5847;SDS011;8756;49.29324300;8.70599800;2023-02-28T07:38:41;16.40;;;10.17;;
5847;SDS011;8756;49.29324300;8.70599800;2023-02-28T07:41:09;17.87;;;9.83;;
5847;SDS011;8756;49.29324300;8.70599800;2023-02-28T07:43:35;18.97;;;11.50;;
5847;SDS011;8756;49.29324300;8.70599800;2023-02-28T07:46:04;19.60;;;12.20;;
5847;SDS011;8756;49.29324300;8.70599800;2023-02-28T07:48:37;15.97;;;9.13;;
5847;SDS011;8756;49.29324300;8.70599800;2023-02-28T07:51:02;16.30;;;9.07;;
5847;SDS011;8756;49.29324300;8.70599800;2023-02-28T07:53:28;19.03;;;8.90;;
5847;SDS011;8756;49.29324300;8.70599800;2023-02-28T07:55:58;19.20;;;10.90;;
5847;SDS011;8756;49.29324300;8.70599800;2023-02-28T07:58:26;18.70;;;10.50;;
5847;SDS011;8756;49.29324300;8.70599800;2023-02-28T08:00:53;17.77;;;10.97;;
5847;SDS011;8756;49.29324300;8.70599800;2023-02-28T08:03:19;19.20;;;10.53;;
5847;SDS011;8756;49.29324300;8.70599800;2023-02-28T08:05:47;19.50;;;9.43;;
5847;SDS011;8756;49.29324300;8.70599800;2023-02-28T08:08:13;17.57;;;10.07;;
5847;SDS011;8756;49.29324300;8.70599800;2023-02-28T08:10:40;17.30;;;10.30;;
5847;SDS011;8756;49.29324300;8.70599800;2023-02-28T08:13:06;20.60;;;11.70;;
5847;SDS011;8756;49.29324300;8.70599800;2023-02-28T08:15:32;18.00;;;11.00;;
5847;SDS011;8756;49.29324300;8.70599800;2023-02-28T08:17:57;20.13;;;10.33;;
5847;SDS011;8756;49.29324300;8.70599800;2023-02-28T08:20:24;20.00;;;11.13;;
5847;SDS011;8756;49.29324300;8.70599800;2023-02-28T08:22:50;18.03;;;10.90;;
5847;SDS011;8756;49.29324300;8.70599800;2023-02-28T08:25:17;23.30;;;10.70;;
5847;SDS011;8756;49.29324300;8.70599800;2023-02-28T08:27:43;17.90;;;9.60;;
5847;SDS011;8756;49.29324300;8.70599800;2023-02-28T08:30:12;18.60;;;12.30;;
5847;SDS011;8756;49.29324300;8.70599800;2023-02-28T08:32:39;19.43;;;11.40;;
5847;SDS011;8756;49.29324300;8.70599800;2023-02-28T08:35:06;18.23;;;9.90;;
5847;SDS011;8756;49.29324300;8.70599800;2023-02-28T08:37:34;17.50;;;10.63;;
5847;SDS011;8756;49.29324300;8.70599800;2023-02-28T08:40:00;18.70;;;11.50;;
5847;SDS011;8756;49.29324300;8.70599800;2023-02-28T08:42:25;18.00;;;10.80;;
5847;SDS011;8756;49.29324300;8.70599800;2023-02-28T08:44:51;20.07;;;12.63;;
5847;SDS011;8756;49.29324300;8.70599800;2023-02-28T08:47:16;16.20;;;10.20;;
5847;SDS011;8756;49.29324300;8.70599800;2023-02-28T08:49:42;19.00;;;11.93;;
5847;SDS011;8756;49.29324300;8.70599800;2023-02-28T08:52:08;21.90;;;12.20;;
5847;SDS011;8756;49.29324300;8.70599800;2023-02-28T08:54:34;19.93;;;11.90;;
5847;SDS011;8756;49.29324300;8.70599800;2023-02-28T08:57:00;19.47;;;11.40;;
5847;SDS011;8756;49.29324300;8.70599800;2023-02-28T08:59:27;19.70;;;11.27;;
5847;SDS011;8756;49.29324300;8.70599800;2023-02-28T09:01:53;19.17;;;10.57;;
5847;SDS011;8756;49.29324300;8.70599800;2023-02-28T09:04:18;19.70;;;10.83;;
5847;SDS011;8756;49.29324300;8.70599800;2023-02-28T09:06:44;18.50;;;10.43;;
5847;SDS011;8756;49.29324300;8.70599800;2023-02-28T09:09:10;19.47;;;10.77;;
5847;SDS011;8756;49.29324300;8.70599800;2023-02-28T09:11:36;20.03;;;11.10;;
5847;SDS011;8756;49.29324300;8.70599800;2023-02-28T09:14:02;21.50;;;12.20;;
5847;SDS011;8756;49.29324300;8.70599800;2023-02-28T09:16:28;19.87;;;12.47;;
5847;SDS011;8756;49.29324300;8.70599800;2023-02-28T09:18:56;17.47;;;10.73;;
5847;SDS011;8756;49.29324300;8.70599800;2023-02-28T09:21:22;17.97;;;10.47;;
5847;SDS011;8756;49.29324300;8.70599800;2023-02-28T09:23:48;19.00;;;11.23;;
5847;SDS011;8756;49.29324300;8.70599800;2023-02-28T09:28:49;18.47;;;9.93;;
5847;SDS011;8756;49.29324300;8.70599800;2023-02-28T09:31:17;19.50;;;11.33;;
5847;SDS011;8756;49.29324300;8.70599800;2023-02-28T09:33:50;19.87;;;11.33;;
5847;SDS011;8756;49.29324300;8.70599800;2023-02-28T09:36:18;17.57;;;10.90;;
5847;SDS011;8756;49.29324300;8.70599800;2023-02-28T09:38:47;19.10;;;11.37;;
5847;SDS011;8756;49.29324300;8.70599800;2023-02-28T09:41:15;21.10;;;12.87;;
5847;SDS011;8756;49.29324300;8.70599800;2023-02-28T09:43:50;19.73;;;11.13;;
5847;SDS011;8756;49.29324300;8.70599800;2023-02-28T09:46:28;19.67;;;11.63;;
5847;SDS011;8756;49.29324300;8.70599800;2023-02-28T09:49:06;20.47;;;11.83;;
5847;SDS011;8756;49.29324300;8.70599800;2023-02-28T09:51:40;20.90;;;11.30;;
5847;SDS011;8756;49.29324300;8.70599800;2023-02-28T09:54:18;18.87;;;12.43;;
5847;SDS011;8756;49.29324300;8.70599800;2023-02-28T09:56:59;21.43;;;10.80;;
5847;SDS011;8756;49.29324300;8.70599800;2023-02-28T09:59:50;19.60;;;11.33;;
5847;SDS011;8756;49.29324300;8.70599800;2023-02-28T10:02:53;19.73;;;11.90;;
5847;SDS011;8756;49.29324300;8.70599800;2023-02-28T10:05:49;19.10;;;11.80;;
5847;SDS011;8756;49.29324300;8.70599800;2023-02-28T10:08:33;20.50;;;12.43;;
5847;SDS011;8756;49.29324300;8.70599800;2023-02-28T10:11:07;19.20;;;12.20;;
5847;SDS011;8756;49.29324300;8.70599800;2023-02-28T10:13:46;20.90;;;11.70;;
5847;SDS011;8756;49.29324300;8.70599800;2023-02-28T10:16:24;18.70;;;11.53;;
5847;SDS011;8756;49.29324300;8.70599800;2023-02-28T10:18:59;18.90;;;10.97;;
5847;SDS011;8756;49.29324300;8.70599800;2023-02-28T10:21:35;19.30;;;11.87;;
5847;SDS011;8756;49.29324300;8.70599800;2023-02-28T10:26:45;19.03;;;12.10;;
5847;SDS011;8756;49.29324300;8.70599800;2023-02-28T10:29:13;19.53;;;11.20;;
5847;SDS011;8756;49.29324300;8.70599800;2023-02-28T10:31:40;20.57;;;11.60;;
5847;SDS011;8756;49.29324300;8.70599800;2023-02-28T10:34:07;21.60;;;11.23;;
5847;SDS011;8756;49.29324300;8.70599800;2023-02-28T10:36:32;20.20;;;11.30;;
5847;SDS011;8756;49.29324300;8.70599800;2023-02-28T10:38:58;18.20;;;10.50;;
5847;SDS011;8756;49.29324300;8.70599800;2023-02-28T10:41:29;18.63;;;12.10;;
5847;SDS011;8756;49.29324300;8.70599800;2023-02-28T10:46:45;19.27;;;11.50;;
5847;SDS011;8756;49.29324300;8.70599800;2023-02-28T10:49:24;21.93;;;11.93;;
5847;SDS011;8756;49.29324300;8.70599800;2023-02-28T10:52:00;20.73;;;11.77;;
5847;SDS011;8756;49.29324300;8.70599800;2023-02-28T10:54:30;18.27;;;10.07;;
5847;SDS011;8756;49.29324300;8.70599800;2023-02-28T10:57:15;20.60;;;11.23;;
5847;SDS011;8756;49.29324300;8.70599800;2023-02-28T10:59:50;19.17;;;11.57;;
5847;SDS011;8756;49.29324300;8.70599800;2023-02-28T11:02:40;17.93;;;11.93;;
5847;SDS011;8756;49.29324300;8.70599800;2023-02-28T11:05:29;20.03;;;11.93;;
5847;SDS011;8756;49.29324300;8.70599800;2023-02-28T11:08:16;23.10;;;13.60;;
5847;SDS011;8756;49.29324300;8.70599800;2023-02-28T11:10:47;18.20;;;11.00;;
5847;SDS011;8756;49.29324300;8.70599800;2023-02-28T11:13:20;19.23;;;11.77;;
5847;SDS011;8756;49.29324300;8.70599800;2023-02-28T11:15:55;24.67;;;13.20;;
5847;SDS011;8756;49.29324300;8.70599800;2023-02-28T11:18:27;20.60;;;13.70;;
5847;SDS011;8756;49.29324300;8.70599800;2023-02-28T11:20:56;19.37;;;10.87;;
5847;SDS011;8756;49.29324300;8.70599800;2023-02-28T11:23:25;19.20;;;12.73;;
5847;SDS011;8756;49.29324300;8.70599800;2023-02-28T11:25:55;20.17;;;11.53;;
5847;SDS011;8756;49.29324300;8.70599800;2023-02-28T11:28:34;20.07;;;11.17;;
5847;SDS011;8756;49.29324300;8.70599800;2023-02-28T11:33:45;20.97;;;12.83;;
5847;SDS011;8756;49.29324300;8.70599800;2023-02-28T11:38:53;18.40;;;11.10;;
5847;SDS011;8756;49.29324300;8.70599800;2023-02-28T11:47:25;19.10;;;11.83;;
5847;SDS011;8756;49.29324300;8.70599800;2023-02-28T11:56:10;22.70;;;12.60;;
5847;SDS011;8756;49.29324300;8.70599800;2023-02-28T11:59:24;21.23;;;11.20;;
5847;SDS011;8756;49.29324300;8.70599800;2023-02-28T12:02:29;21.23;;;11.73;;
5847;SDS011;8756;49.29324300;8.70599800;2023-02-28T12:05:24;23.70;;;12.37;;
5847;SDS011;8756;49.29324300;8.70599800;2023-02-28T12:14:19;19.97;;;12.63;;
5847;SDS011;8756;49.29324300;8.70599800;2023-02-28T12:17:04;20.23;;;12.37;;
5847;SDS011;8756;49.29324300;8.70599800;2023-02-28T12:26:02;20.33;;;11.87;;
5847;SDS011;8756;49.29324300;8.70599800;2023-02-28T12:29:12;22.00;;;11.93;;
5847;SDS011;8756;49.29324300;8.70599800;2023-02-28T12:34:33;20.67;;;13.37;;
5847;SDS011;8756;49.29324300;8.70599800;2023-02-28T12:37:37;21.67;;;11.63;;
5847;SDS011;8756;49.29324300;8.70599800;2023-02-28T12:40:18;23.60;;;12.50;;
5847;SDS011;8756;49.29324300;8.70599800;2023-02-28T12:42:51;19.00;;;12.77;;
5847;SDS011;8756;49.29324300;8.70599800;2023-02-28T12:45:22;20.73;;;11.27;;
5847;SDS011;8756;49.29324300;8.70599800;2023-02-28T12:48:04;20.40;;;12.17;;
5847;SDS011;8756;49.29324300;8.70599800;2023-02-28T12:50:33;20.83;;;12.10;;
5847;SDS011;8756;49.29324300;8.70599800;2023-02-28T12:58:39;21.80;;;13.50;;
5847;SDS011;8756;49.29324300;8.70599800;2023-02-28T13:01:48;23.20;;;14.50;;
5847;SDS011;8756;49.29324300;8.70599800;2023-02-28T13:10:47;19.30;;;11.83;;
5847;SDS011;8756;49.29324300;8.70599800;2023-02-28T13:13:19;19.30;;;12.70;;
5847;SDS011;8756;49.29324300;8.70599800;2023-02-28T13:18:32;22.13;;;13.37;;
5847;SDS011;8756;49.29324300;8.70599800;2023-02-28T13:21:01;20.73;;;13.10;;
5847;SDS011;8756;49.29324300;8.70599800;2023-02-28T13:26:17;23.13;;;13.80;;
5847;SDS011;8756;49.29324300;8.70599800;2023-02-28T13:31:20;27.93;;;13.50;;
5847;SDS011;8756;49.29324300;8.70599800;2023-02-28T13:38:43;21.97;;;12.70;;
5847;SDS011;8756;49.29324300;8.70599800;2023-02-28T13:44:08;23.10;;;14.57;;
5847;SDS011;8756;49.29324300;8.70599800;2023-02-28T14:00:43;22.43;;;12.80;;
5847;SDS011;8756;49.29324300;8.70599800;2023-02-28T14:06:36;19.37;;;11.97;;
5847;SDS011;8756;49.29324300;8.70599800;2023-02-28T14:09:18;26.10;;;12.53;;
5847;SDS011;8756;49.29324300;8.70599800;2023-02-28T14:11:53;21.53;;;13.37;;
5847;SDS011;8756;49.29324300;8.70599800;2023-02-28T14:17:01;19.37;;;12.30;;
5847;SDS011;8756;49.29324300;8.70599800;2023-02-28T14:19:34;19.27;;;12.17;;
5847;SDS011;8756;49.29324300;8.70599800;2023-02-28T14:27:45;19.77;;;11.90;;
5847;SDS011;8756;49.29324300;8.70599800;2023-02-28T14:30:51;20.27;;;13.30;;
5847;SDS011;8756;49.29324300;8.70599800;2023-02-28T14:36:38;23.73;;;11.93;;
5847;SDS011;8756;49.29324300;8.70599800;2023-02-28T14:39:16;22.27;;;14.20;;
5847;SDS011;8756;49.29324300;8.70599800;2023-02-28T14:41:47;20.87;;;14.03;;
5847;SDS011;8756;49.29324300;8.70599800;2023-02-28T14:44:20;21.23;;;12.97;;
5847;SDS011;8756;49.29324300;8.70599800;2023-02-28T14:46:53;22.57;;;13.10;;
5847;SDS011;8756;49.29324300;8.70599800;2023-02-28T14:49:32;21.30;;;14.33;;
5847;SDS011;8756;49.29324300;8.70599800;2023-02-28T14:54:44;21.03;;;13.20;;
5847;SDS011;8756;49.29324300;8.70599800;2023-02-28T14:57:22;22.60;;;13.10;;
5847;SDS011;8756;49.29324300;8.70599800;2023-02-28T15:02:51;25.60;;;12.03;;
5847;SDS011;8756;49.29324300;8.70599800;2023-02-28T15:08:05;19.97;;;12.50;;
5847;SDS011;8756;49.29324300;8.70599800;2023-02-28T15:18:57;22.10;;;14.27;;
5847;SDS011;8756;49.29324300;8.70599800;2023-02-28T15:21:28;20.80;;;12.40;;
5847;SDS011;8756;49.29324300;8.70599800;2023-02-28T15:27:05;23.53;;;13.93;;
5847;SDS011;8756;49.29324300;8.70599800;2023-02-28T15:29:45;22.10;;;13.50;;
5847;SDS011;8756;49.29324300;8.70599800;2023-02-28T15:32:40;21.37;;;13.17;;
5847;SDS011;8756;49.29324300;8.70599800;2023-02-28T15:40:44;23.93;;;14.87;;
5847;SDS011;8756;49.29324300;8.70599800;2023-02-28T15:43:31;21.97;;;13.97;;
5847;SDS011;8756;49.29324300;8.70599800;2023-02-28T15:48:32;25.97;;;13.87;;